createdAt,value
2023-01-18T00:01:07.063Z,0.60
2023-01-18T00:03:17.188Z,0.60
2023-01-18T00:05:26.897Z,0.50
2023-01-18T00:07:36.858Z,0.80
2023-01-18T00:09:46.480Z,0.80
2023-01-18T00:11:55.934Z,1.10
2023-01-18T00:14:06.104Z,1.10
2023-01-18T00:16:17.474Z,1.30
2023-01-18T00:18:26.920Z,1.20
2023-01-18T00:20:36.561Z,0.80
2023-01-18T00:22:46.995Z,1.20
2023-01-18T00:24:56.652Z,0.90
2023-01-18T00:27:06.545Z,0.70
2023-01-18T00:29:16.523Z,0.80
2023-01-18T00:31:26.196Z,1.60
2023-01-18T00:33:36.039Z,1.60
2023-01-18T00:35:45.896Z,1.00
2023-01-18T00:37:56.606Z,2.00
2023-01-18T00:40:07.665Z,1.80
2023-01-18T00:42:35.202Z,2.00
2023-01-18T00:44:45.241Z,1.10
2023-01-18T00:46:56.469Z,1.20
2023-01-18T00:49:06.448Z,2.60
2023-01-18T00:51:17.326Z,0.90
2023-01-18T00:53:27.911Z,2.40
2023-01-18T00:55:37.729Z,2.90
2023-01-18T00:57:47.736Z,2.90
2023-01-18T00:59:57.623Z,1.90
2023-01-18T01:02:08.435Z,3.30
2023-01-18T01:04:35.322Z,2.90
2023-01-18T01:06:48.125Z,2.50
2023-01-18T01:08:58.589Z,2.90
2023-01-18T01:11:13.966Z,1.50
2023-01-18T01:13:42.216Z,0.70
2023-01-18T01:16:08.830Z,1.10
2023-01-18T01:18:35.970Z,1.10
2023-01-18T01:21:03.086Z,0.80
2023-01-18T01:23:34.454Z,0.90
2023-01-18T01:26:01.450Z,1.20
2023-01-18T01:28:11.414Z,0.80
2023-01-18T01:30:21.526Z,0.80
2023-01-18T01:32:31.115Z,1.00
2023-01-18T01:34:40.907Z,0.90
2023-01-18T01:36:51.512Z,0.80
2023-01-18T01:39:01.783Z,1.00
2023-01-18T01:41:16.001Z,0.90
2023-01-18T01:43:49.146Z,0.80
2023-01-18T01:45:58.858Z,0.80
2023-01-18T01:48:10.342Z,0.80
2023-01-18T01:50:28.935Z,0.80
2023-01-18T01:52:41.289Z,1.10
2023-01-18T01:54:55.621Z,0.80
2023-01-18T01:57:10.999Z,0.80
2023-01-18T01:59:22.138Z,0.90
2023-01-18T02:01:32.441Z,1.20
2023-01-18T02:03:43.580Z,1.30
2023-01-18T02:05:59.391Z,1.50
2023-01-18T02:08:11.844Z,1.20
2023-01-18T02:10:21.057Z,0.80
2023-01-18T02:12:32.331Z,1.20
2023-01-18T02:14:43.127Z,1.00
2023-01-18T02:17:08.154Z,0.90
2023-01-18T02:19:37.388Z,0.80
2023-01-18T02:21:50.596Z,0.90
2023-01-18T02:24:26.758Z,1.00
2023-01-18T02:26:59.178Z,1.50
2023-01-18T02:31:25.495Z,1.50
2023-01-18T02:33:40.757Z,1.70
2023-01-18T02:35:54.470Z,1.60
2023-01-18T02:38:11.515Z,1.50
2023-01-18T02:40:28.006Z,1.40
2023-01-18T02:42:58.874Z,1.60
2023-01-18T02:45:35.612Z,1.40
2023-01-18T02:47:47.496Z,1.90
2023-01-18T02:49:57.516Z,2.10
2023-01-18T02:52:09.582Z,2.30
2023-01-18T02:56:40.275Z,1.70
2023-01-18T02:58:52.481Z,1.70
2023-01-18T03:01:06.802Z,1.70
2023-01-18T03:03:18.127Z,2.10
2023-01-18T03:05:29.746Z,2.00
2023-01-18T03:07:47.313Z,1.90
2023-01-18T03:09:58.143Z,1.80
2023-01-18T03:12:18.320Z,2.30
2023-01-18T03:14:39.552Z,1.90
2023-01-18T03:17:00.693Z,1.70
2023-01-18T03:19:33.209Z,2.00
2023-01-18T03:21:47.439Z,2.00
2023-01-18T03:23:59.536Z,1.90
2023-01-18T03:26:16.839Z,2.00
2023-01-18T03:28:48.010Z,1.70
2023-01-18T03:31:17.807Z,1.80
2023-01-18T03:33:49.245Z,2.40
2023-01-18T03:36:01.693Z,2.20
2023-01-18T03:38:11.948Z,1.70
2023-01-18T03:40:25.016Z,1.80
2023-01-18T03:42:38.848Z,2.00
2023-01-18T03:44:53.037Z,1.60
2023-01-18T03:47:03.499Z,1.70
2023-01-18T03:49:13.231Z,2.00
2023-01-18T03:51:33.354Z,2.10
2023-01-18T03:53:48.896Z,1.70
2023-01-18T03:56:03.724Z,1.80
2023-01-18T03:58:16.457Z,1.40
2023-01-18T04:00:26.602Z,2.00
2023-01-18T04:02:36.686Z,1.80
2023-01-18T04:04:46.396Z,1.40
2023-01-18T04:06:56.159Z,1.90
2023-01-18T04:09:05.895Z,1.90
2023-01-18T04:11:15.946Z,2.00
2023-01-18T04:13:25.707Z,2.30
2023-01-18T04:15:35.653Z,1.80
2023-01-18T04:17:45.267Z,1.50
2023-01-18T04:19:55.259Z,2.30
2023-01-18T04:22:04.849Z,2.00
2023-01-18T04:24:14.902Z,1.80
2023-01-18T04:26:24.891Z,1.80
2023-01-18T04:28:35.013Z,1.80
2023-01-18T04:30:44.562Z,2.00
2023-01-18T04:32:54.376Z,1.30
2023-01-18T04:35:04.362Z,1.50
2023-01-18T04:37:13.911Z,1.70
2023-01-18T04:39:23.707Z,1.90
2023-01-18T04:41:33.441Z,1.70
2023-01-18T04:43:42.805Z,1.60
2023-01-18T04:45:58.900Z,1.40
2023-01-18T04:48:09.026Z,1.70
2023-01-18T04:50:19.393Z,1.90
2023-01-18T04:52:32.513Z,1.70
2023-01-18T04:54:41.854Z,1.70
2023-01-18T04:56:52.267Z,2.80
2023-01-18T04:59:01.898Z,1.40
2023-01-18T05:01:14.729Z,1.80
2023-01-18T05:03:24.911Z,2.40
2023-01-18T05:05:34.547Z,1.80
2023-01-18T05:07:44.007Z,1.90
2023-01-18T05:09:53.643Z,2.00
2023-01-18T05:12:03.017Z,1.80
2023-01-18T05:14:12.872Z,1.80
2023-01-18T05:16:24.055Z,1.70
2023-01-18T05:18:34.212Z,2.20
2023-01-18T05:20:43.976Z,2.00
2023-01-18T05:22:53.691Z,2.00
2023-01-18T05:25:03.719Z,2.00
2023-01-18T05:27:13.735Z,2.50
2023-01-18T05:29:23.338Z,2.00
2023-01-18T05:31:33.149Z,1.90
2023-01-18T05:33:42.843Z,2.00
2023-01-18T05:35:56.370Z,1.90
2023-01-18T05:38:06.311Z,2.50
2023-01-18T05:40:17.056Z,2.10
2023-01-18T05:42:26.605Z,2.20
2023-01-18T05:44:36.764Z,1.80
2023-01-18T05:46:46.795Z,1.60
2023-01-18T05:49:00.299Z,1.60
2023-01-18T05:51:14.003Z,1.60
2023-01-18T05:53:24.915Z,2.00
2023-01-18T05:55:34.792Z,2.60
2023-01-18T05:57:45.354Z,1.50
2023-01-18T05:59:56.396Z,1.80
2023-01-18T06:02:07.615Z,1.50
2023-01-18T06:04:18.784Z,1.60
2023-01-18T06:06:28.651Z,1.20
2023-01-18T06:08:38.674Z,1.20
2023-01-18T06:10:53.747Z,1.30
2023-01-18T06:13:03.855Z,1.70
2023-01-18T06:15:17.597Z,1.50
2023-01-18T06:17:27.813Z,1.70
2023-01-18T06:19:37.909Z,1.80
2023-01-18T06:21:48.059Z,1.10
2023-01-18T06:23:57.724Z,1.40
2023-01-18T06:26:08.070Z,1.80
2023-01-18T06:28:17.808Z,1.80
2023-01-18T06:30:27.969Z,2.00
2023-01-18T06:32:37.797Z,1.40
2023-01-18T06:34:47.566Z,1.60
2023-01-18T06:36:57.303Z,1.60
2023-01-18T06:39:07.524Z,1.80
2023-01-18T06:41:18.424Z,1.90
2023-01-18T06:43:28.211Z,2.00
2023-01-18T06:45:38.461Z,1.60
2023-01-18T06:47:48.634Z,1.80
2023-01-18T06:49:58.307Z,1.50
2023-01-18T06:52:08.134Z,1.60
2023-01-18T06:54:18.011Z,1.30
2023-01-18T06:56:29.672Z,1.80
2023-01-18T06:58:40.220Z,1.60
2023-01-18T07:00:50.603Z,1.50
2023-01-18T07:03:01.020Z,1.70
2023-01-18T07:05:11.714Z,1.60
2023-01-18T07:07:21.769Z,1.50
2023-01-18T07:09:31.819Z,1.70
2023-01-18T07:11:43.681Z,1.10
2023-01-18T07:13:54.267Z,1.60
2023-01-18T07:16:04.390Z,1.50
2023-01-18T07:18:15.986Z,1.40
2023-01-18T07:20:25.869Z,1.60
2023-01-18T07:22:36.441Z,1.70
2023-01-18T07:24:46.274Z,1.50
2023-01-18T07:26:56.379Z,1.70
2023-01-18T07:29:06.225Z,1.70
2023-01-18T07:31:16.984Z,1.50
2023-01-18T07:33:26.956Z,2.10
2023-01-18T07:35:36.913Z,2.00
2023-01-18T07:37:49.316Z,1.50
2023-01-18T07:39:59.366Z,1.70
2023-01-18T07:42:09.468Z,2.00
2023-01-18T07:44:19.585Z,1.90
2023-01-18T07:46:29.966Z,1.80
2023-01-18T07:48:40.477Z,1.80
2023-01-18T07:50:56.889Z,1.60
2023-01-18T07:53:09.091Z,2.30
2023-01-18T07:55:19.126Z,1.40
2023-01-18T07:57:29.030Z,1.40
2023-01-18T07:59:40.372Z,1.60
2023-01-18T08:01:50.436Z,1.60
2023-01-18T08:04:00.150Z,1.50
2023-01-18T08:06:11.155Z,1.30
2023-01-18T08:08:21.444Z,1.30
2023-01-18T08:10:31.252Z,1.50
2023-01-18T08:12:41.305Z,1.70
2023-01-18T08:14:51.012Z,1.40
2023-01-18T08:17:00.954Z,1.50
2023-01-18T08:19:11.334Z,1.50
2023-01-18T08:21:21.059Z,1.60
2023-01-18T08:23:30.930Z,1.20
2023-01-18T08:25:40.772Z,1.10
2023-01-18T08:27:50.695Z,1.40
2023-01-18T08:30:00.610Z,1.40
2023-01-18T08:32:10.858Z,1.50
2023-01-18T08:34:20.755Z,1.40
2023-01-18T08:36:32.113Z,1.00
2023-01-18T08:38:41.963Z,1.40
2023-01-18T08:40:51.889Z,1.40
2023-01-18T08:43:03.058Z,1.50
2023-01-18T08:45:14.373Z,1.50
2023-01-18T08:47:24.534Z,1.60
2023-01-18T08:49:36.127Z,1.70
2023-01-18T08:51:45.959Z,1.80
2023-01-18T08:53:56.887Z,1.50
2023-01-18T08:56:10.455Z,1.50
2023-01-18T08:58:20.376Z,1.40
2023-01-18T09:00:30.766Z,1.50
2023-01-18T09:02:40.756Z,1.40
2023-01-18T09:04:50.928Z,1.50
2023-01-18T09:07:00.677Z,1.20
2023-01-18T09:09:11.953Z,1.60
2023-01-18T09:11:22.147Z,1.50
2023-01-18T09:13:31.859Z,1.20
2023-01-18T09:15:41.837Z,1.20
2023-01-18T09:17:51.816Z,1.40
2023-01-18T09:20:02.399Z,1.20
2023-01-18T09:22:12.726Z,1.30
2023-01-18T09:24:22.628Z,1.30
2023-01-18T09:26:32.555Z,1.40
2023-01-18T09:28:42.716Z,1.20
2023-01-18T09:30:52.681Z,1.40
2023-01-18T09:33:02.499Z,1.40
2023-01-18T09:35:18.336Z,2.10
2023-01-18T09:37:27.714Z,1.30
2023-01-18T09:39:50.761Z,1.50
2023-01-18T09:42:04.996Z,1.40
2023-01-18T09:44:23.941Z,1.60
2023-01-18T09:46:38.531Z,1.50
2023-01-18T09:48:54.648Z,1.60
2023-01-18T09:51:08.855Z,1.30
2023-01-18T09:53:33.775Z,1.60
2023-01-18T09:55:54.884Z,1.00
2023-01-18T09:58:15.381Z,1.30
2023-01-18T10:00:28.226Z,2.20
2023-01-18T10:02:40.513Z,2.00
2023-01-18T10:04:54.955Z,1.30
2023-01-18T10:07:07.567Z,1.30
2023-01-18T10:09:21.406Z,1.20
2023-01-18T10:11:45.284Z,1.10
2023-01-18T10:14:05.551Z,1.10
2023-01-18T10:16:16.945Z,1.00
2023-01-18T10:18:28.038Z,1.20
2023-01-18T10:20:46.299Z,1.20
2023-01-18T10:23:01.855Z,1.20
2023-01-18T10:25:22.516Z,1.40
2023-01-18T10:28:01.622Z,1.20
2023-01-18T10:30:36.620Z,1.60
2023-01-18T10:32:50.949Z,1.30
2023-01-18T10:35:03.700Z,1.40
2023-01-18T10:37:19.114Z,2.00
2023-01-18T10:39:35.329Z,1.20
2023-01-18T10:41:46.692Z,1.30
2023-01-18T10:43:56.758Z,1.50
2023-01-18T10:46:12.686Z,1.30
2023-01-18T10:48:34.405Z,1.20
2023-01-18T10:50:50.051Z,1.80
2023-01-18T10:53:21.075Z,1.80
2023-01-18T10:55:31.153Z,1.60
2023-01-18T10:57:45.795Z,1.70
2023-01-18T10:59:56.967Z,1.70
2023-01-18T11:02:07.431Z,1.60
2023-01-18T11:04:24.828Z,1.40
2023-01-18T11:06:46.507Z,1.70
2023-01-18T11:08:56.450Z,1.70
2023-01-18T11:11:08.113Z,1.60
2023-01-18T11:13:33.429Z,1.20
2023-01-18T11:15:44.061Z,1.20
2023-01-18T11:18:12.424Z,1.50
2023-01-18T11:20:26.458Z,1.70
2023-01-18T11:22:37.153Z,1.10
2023-01-18T11:24:49.511Z,1.10
2023-01-18T11:27:02.125Z,1.20
2023-01-18T11:29:17.464Z,1.50
2023-01-18T11:31:29.023Z,1.10
2023-01-18T11:33:41.539Z,1.70
2023-01-18T11:36:00.820Z,1.50
2023-01-18T11:38:18.951Z,1.00
2023-01-18T11:40:31.451Z,1.40
2023-01-18T11:42:42.752Z,1.50
2023-01-18T11:45:09.819Z,0.90
2023-01-18T11:47:26.691Z,1.30
2023-01-18T11:49:44.800Z,1.10
2023-01-18T11:52:00.533Z,1.20
2023-01-18T11:54:23.020Z,1.00
2023-01-18T11:56:42.519Z,1.10
2023-01-18T11:58:52.464Z,1.30
2023-01-18T12:01:21.975Z,1.20
2023-01-18T12:03:49.412Z,1.30
2023-01-18T12:06:05.314Z,1.20
2023-01-18T12:08:45.978Z,1.20
2023-01-18T12:11:08.325Z,0.80
2023-01-18T12:13:35.695Z,1.10
2023-01-18T12:16:01.333Z,0.80
2023-01-18T12:18:33.238Z,0.90
2023-01-18T12:20:53.239Z,1.00
2023-01-18T12:23:31.661Z,1.10
2023-01-18T12:26:11.050Z,1.00
2023-01-18T12:28:33.730Z,1.00
2023-01-18T12:30:55.283Z,1.00
2023-01-18T12:33:17.916Z,1.50
2023-01-18T12:35:39.091Z,1.20
2023-01-18T12:37:57.053Z,1.10
2023-01-18T12:40:31.957Z,0.90
2023-01-18T12:42:54.926Z,1.00
2023-01-18T12:45:15.915Z,1.20
2023-01-18T12:47:36.824Z,1.30
2023-01-18T12:49:50.960Z,1.10
2023-01-18T12:52:17.682Z,1.50
2023-01-18T12:54:34.659Z,0.90
2023-01-18T12:56:47.865Z,1.00
2023-01-18T12:59:02.241Z,1.00
2023-01-18T13:01:16.980Z,1.30
2023-01-18T13:03:30.248Z,1.60
2023-01-18T13:05:51.548Z,1.10
2023-01-18T13:08:09.558Z,1.10
2023-01-18T13:10:23.997Z,1.10
2023-01-18T13:12:34.487Z,1.20
2023-01-18T13:14:53.419Z,1.50
2023-01-18T13:17:11.266Z,1.30
2023-01-18T13:19:26.232Z,1.40
2023-01-18T13:21:54.921Z,1.40
2023-01-18T13:24:16.642Z,1.80
2023-01-18T13:26:30.653Z,1.70
2023-01-18T13:28:40.620Z,1.10
2023-01-18T13:30:56.969Z,1.30
2023-01-18T13:33:17.411Z,1.40
2023-01-18T13:35:33.700Z,1.30
2023-01-18T13:37:49.719Z,1.30
2023-01-18T13:40:00.159Z,1.50
2023-01-18T13:42:36.088Z,1.50
2023-01-18T13:44:47.290Z,1.10
2023-01-18T13:47:01.935Z,2.40
2023-01-18T13:49:37.771Z,1.20
2023-01-18T13:51:59.215Z,1.80
2023-01-18T13:54:09.629Z,1.50
2023-01-18T13:56:29.258Z,1.70
2023-01-18T13:58:40.567Z,1.40
2023-01-18T14:00:53.337Z,1.80
2023-01-18T14:03:16.513Z,1.20
2023-01-18T14:05:29.558Z,1.60
2023-01-18T14:07:48.186Z,1.30
2023-01-18T14:10:03.929Z,1.20
2023-01-18T14:12:15.434Z,1.60
2023-01-18T14:14:34.680Z,1.50
2023-01-18T14:17:01.392Z,1.40
2023-01-18T14:19:20.272Z,1.40
2023-01-18T14:21:36.162Z,1.20
2023-01-18T14:24:17.147Z,1.10
2023-01-18T14:26:31.257Z,1.30
2023-01-18T14:28:48.066Z,1.30
2023-01-18T14:31:00.746Z,1.20
2023-01-18T14:33:15.851Z,1.20
2023-01-18T14:35:26.199Z,1.50
2023-01-18T14:37:36.769Z,1.10
2023-01-18T14:39:46.501Z,1.30
2023-01-18T14:41:59.087Z,1.40
2023-01-18T14:44:15.085Z,1.60
2023-01-18T14:46:28.502Z,1.20
2023-01-18T14:48:42.893Z,1.40
2023-01-18T14:50:54.950Z,1.50
2023-01-18T14:55:27.493Z,1.30
2023-01-18T14:57:36.965Z,2.30
2023-01-18T14:59:55.270Z,1.20
2023-01-18T15:02:17.012Z,1.00
2023-01-18T15:04:28.712Z,1.20
2023-01-18T15:06:42.906Z,1.10
2023-01-18T15:08:53.512Z,1.20
2023-01-18T15:11:06.197Z,1.00
2023-01-18T15:13:20.657Z,1.20
2023-01-18T15:15:35.104Z,1.30
2023-01-18T15:17:46.568Z,1.10
2023-01-18T15:19:59.774Z,1.80
2023-01-18T15:22:12.702Z,1.70
2023-01-18T15:24:25.164Z,1.70
2023-01-18T15:26:45.073Z,1.60
2023-01-18T15:28:55.188Z,1.50
2023-01-18T15:31:14.106Z,1.50
2023-01-18T15:33:27.414Z,1.20
2023-01-18T15:35:38.372Z,1.50
2023-01-18T15:37:48.586Z,1.40
2023-01-18T15:40:04.219Z,1.40
2023-01-18T15:42:16.248Z,1.40
2023-01-18T15:46:47.742Z,1.00
2023-01-18T15:48:59.635Z,1.00
2023-01-18T15:51:13.233Z,1.10
2023-01-18T15:53:28.522Z,0.90
2023-01-18T15:55:40.480Z,1.30
2023-01-18T15:57:59.439Z,0.90
2023-01-18T16:00:23.939Z,1.00
2023-01-18T16:02:34.089Z,1.00
2023-01-18T16:04:44.103Z,1.10
2023-01-18T16:06:54.292Z,0.90
2023-01-18T16:09:11.528Z,1.10
2023-01-18T16:11:35.078Z,1.10
2023-01-18T16:13:46.008Z,1.00
2023-01-18T16:16:14.519Z,1.20
2023-01-18T16:18:24.299Z,1.30
2023-01-18T16:20:36.381Z,1.00
2023-01-18T16:22:46.812Z,1.10
2023-01-18T16:24:59.224Z,1.20
2023-01-18T16:27:20.811Z,1.00
2023-01-18T16:29:31.812Z,1.30
2023-01-18T16:31:44.795Z,1.40
2023-01-18T16:33:54.830Z,1.30
2023-01-18T16:36:16.210Z,1.50
2023-01-18T16:38:26.273Z,0.90
2023-01-18T16:40:39.073Z,1.30
2023-01-18T16:43:08.101Z,1.30
2023-01-18T16:45:18.306Z,1.10
2023-01-18T16:47:27.954Z,1.10
2023-01-18T16:49:39.320Z,0.90
2023-01-18T16:51:50.622Z,1.20
2023-01-18T16:54:00.853Z,1.30
2023-01-18T16:56:11.654Z,1.50
2023-01-18T16:58:22.171Z,1.10
2023-01-18T17:00:37.485Z,1.10
2023-01-18T17:02:47.867Z,1.00
2023-01-18T17:04:57.442Z,1.00
2023-01-18T17:07:08.102Z,0.80
2023-01-18T17:09:47.339Z,1.00
2023-01-18T17:11:58.733Z,1.00
2023-01-18T17:14:09.030Z,1.00
2023-01-18T17:16:20.965Z,1.20
2023-01-18T17:20:38.893Z,1.20
2023-01-18T17:22:49.001Z,1.20
2023-01-18T17:24:59.311Z,1.30
2023-01-18T17:27:11.759Z,1.20
2023-01-18T17:29:23.022Z,1.40
2023-01-18T17:31:35.246Z,1.20
2023-01-18T17:33:45.087Z,1.20
2023-01-18T17:35:56.551Z,2.10
2023-01-18T17:38:11.926Z,2.00
2023-01-18T17:40:38.663Z,1.20
2023-01-18T17:42:49.863Z,1.30
2023-01-18T17:45:04.098Z,1.50
2023-01-18T17:47:13.800Z,1.30
2023-01-18T17:49:24.200Z,1.70
2023-01-18T17:51:35.495Z,1.40
2023-01-18T17:53:45.398Z,1.70
2023-01-18T17:55:55.367Z,1.30
2023-01-18T17:58:05.226Z,1.70
2023-01-18T18:00:17.389Z,1.20
2023-01-18T18:02:27.815Z,1.70
2023-01-18T18:04:37.810Z,0.90
2023-01-18T18:06:54.369Z,1.40
2023-01-18T18:09:05.151Z,1.30
2023-01-18T18:11:16.034Z,1.20
2023-01-18T18:13:26.485Z,1.30
2023-01-18T18:15:36.382Z,1.20
2023-01-18T18:17:46.619Z,1.30
2023-01-18T18:19:56.973Z,1.20
2023-01-18T18:22:07.045Z,1.20
2023-01-18T18:24:16.873Z,1.70
2023-01-18T18:26:26.867Z,1.50
2023-01-18T18:28:38.097Z,1.40
2023-01-18T18:30:49.684Z,1.80
2023-01-18T18:33:01.145Z,1.30
2023-01-18T18:35:24.261Z,1.50
2023-01-18T18:37:35.656Z,1.40
2023-01-18T18:39:45.794Z,2.10
2023-01-18T18:41:55.913Z,1.40
2023-01-18T18:44:06.147Z,1.50
2023-01-18T18:46:16.452Z,1.80
2023-01-18T18:48:26.508Z,1.70
2023-01-18T18:50:36.393Z,1.40
2023-01-18T18:52:47.474Z,1.60
2023-01-18T18:54:57.400Z,1.90
2023-01-18T18:57:11.031Z,1.50
2023-01-18T18:59:21.079Z,1.60
2023-01-18T19:01:32.107Z,1.50
2023-01-18T19:03:42.439Z,1.80
2023-01-18T19:05:52.502Z,1.30
2023-01-18T19:08:03.290Z,1.50
2023-01-18T19:10:15.196Z,1.50
2023-01-18T19:12:25.860Z,1.20
2023-01-18T19:14:35.901Z,0.70
2023-01-18T19:16:45.822Z,0.70
2023-01-18T19:18:56.012Z,0.70
2023-01-18T19:21:06.119Z,0.90
2023-01-18T19:23:16.121Z,0.70
2023-01-18T19:25:26.099Z,0.80
2023-01-18T19:27:37.932Z,1.10
2023-01-18T19:29:48.006Z,0.80
2023-01-18T19:31:57.957Z,1.10
2023-01-18T19:34:07.667Z,0.90
2023-01-18T19:36:18.564Z,1.20
2023-01-18T19:38:28.390Z,1.00
2023-01-18T19:40:38.603Z,1.20
2023-01-18T19:42:54.886Z,0.90
2023-01-18T19:45:05.130Z,1.60
2023-01-18T19:47:15.345Z,1.00
2023-01-18T19:49:26.637Z,0.90
2023-01-18T19:51:40.624Z,0.80
2023-01-18T19:53:51.035Z,0.80
2023-01-18T19:56:07.231Z,0.70
2023-01-18T19:58:17.934Z,0.80
2023-01-18T20:00:27.879Z,0.70
2023-01-18T20:02:45.332Z,0.70
2023-01-18T20:04:58.062Z,0.60
2023-01-18T20:07:09.067Z,0.70
2023-01-18T20:09:21.194Z,0.80
2023-01-18T20:11:33.125Z,0.70
2023-01-18T20:13:44.443Z,0.60
2023-01-18T20:15:55.055Z,0.50
2023-01-18T20:18:05.506Z,1.00
2023-01-18T20:20:24.282Z,0.90
2023-01-18T20:22:41.760Z,0.90
2023-01-18T20:24:51.673Z,1.00
2023-01-18T20:27:15.489Z,0.90
2023-01-18T20:29:26.423Z,0.70
2023-01-18T20:31:36.554Z,0.90
2023-01-18T20:33:46.490Z,0.60
2023-01-18T20:35:56.969Z,0.60
2023-01-18T20:38:07.054Z,0.70
2023-01-18T20:40:17.828Z,0.70
2023-01-18T20:42:27.807Z,0.60
2023-01-18T20:44:38.089Z,0.60
2023-01-18T20:46:48.945Z,0.60
2023-01-18T20:48:58.870Z,0.90
2023-01-18T20:51:09.794Z,0.90
2023-01-18T20:53:19.326Z,0.60
2023-01-18T20:55:29.819Z,0.70
2023-01-18T20:57:40.074Z,0.70
2023-01-18T20:59:49.633Z,0.70
2023-01-18T21:01:59.473Z,0.70
2023-01-18T21:04:09.236Z,0.80
2023-01-18T21:06:19.190Z,0.70
2023-01-18T21:08:28.760Z,0.70
2023-01-18T21:10:40.081Z,0.60
2023-01-18T21:12:49.853Z,0.70
2023-01-18T21:15:00.806Z,0.80
2023-01-18T21:17:10.713Z,0.60
2023-01-18T21:19:21.455Z,0.60
2023-01-18T21:21:32.247Z,0.70
2023-01-18T21:23:42.639Z,0.80
2023-01-18T21:25:56.342Z,0.80
2023-01-18T21:28:06.599Z,0.60
2023-01-18T21:30:18.242Z,0.80
2023-01-18T21:32:27.863Z,1.00
2023-01-18T21:34:38.023Z,0.70
2023-01-18T21:36:47.820Z,0.70
2023-01-18T21:38:58.259Z,0.70
2023-01-18T21:41:30.595Z,0.60
2023-01-18T21:43:57.775Z,0.50
2023-01-18T21:46:09.360Z,0.70
2023-01-18T21:48:19.604Z,0.70
2023-01-18T21:50:46.642Z,0.90
2023-01-18T21:53:13.893Z,0.80
2023-01-18T21:55:24.263Z,0.80
2023-01-18T21:57:34.105Z,1.20
2023-01-18T21:59:45.047Z,0.70
2023-01-18T22:01:56.138Z,0.90
2023-01-18T22:04:24.664Z,0.70
2023-01-18T22:06:34.229Z,0.80
2023-01-18T22:08:44.357Z,0.90
2023-01-18T22:10:54.711Z,1.40
2023-01-18T22:13:04.799Z,0.70
2023-01-18T22:15:17.469Z,1.00
2023-01-18T22:17:27.834Z,0.80
2023-01-18T22:19:37.861Z,0.80
2023-01-18T22:21:47.421Z,0.80
2023-01-18T22:23:57.744Z,0.80
2023-01-18T22:26:07.651Z,0.80
2023-01-18T22:28:17.532Z,0.60
2023-01-18T22:30:27.510Z,0.60
2023-01-18T22:32:37.853Z,0.90
2023-01-18T22:34:47.756Z,0.70
2023-01-18T22:36:57.641Z,0.80
2023-01-18T22:39:08.263Z,0.60
2023-01-18T22:41:20.597Z,0.70
2023-01-18T22:43:30.647Z,0.70
2023-01-18T22:45:40.755Z,0.70
2023-01-18T22:47:51.181Z,0.80
2023-01-18T22:50:01.074Z,0.80
2023-01-18T22:52:10.790Z,0.60
2023-01-18T22:54:23.024Z,0.90
2023-01-18T22:56:32.977Z,0.60
2023-01-18T22:58:42.925Z,0.80
2023-01-18T23:00:52.930Z,0.80
2023-01-18T23:03:03.064Z,0.90
2023-01-18T23:05:13.907Z,0.70
2023-01-18T23:07:23.932Z,0.80
2023-01-18T23:09:34.309Z,0.70
2023-01-18T23:11:45.100Z,0.80
2023-01-18T23:14:14.649Z,0.90
2023-01-18T23:16:42.191Z,0.80
2023-01-18T23:18:52.505Z,0.80
2023-01-18T23:21:03.169Z,0.90
2023-01-18T23:23:16.280Z,0.90
2023-01-18T23:25:33.978Z,0.90
2023-01-18T23:27:43.788Z,1.10
2023-01-18T23:29:57.554Z,0.80
2023-01-18T23:32:08.093Z,0.80
2023-01-18T23:34:18.255Z,1.10
2023-01-18T23:36:29.712Z,0.90
2023-01-18T23:38:56.562Z,0.80
2023-01-18T23:41:23.506Z,1.00
2023-01-18T23:43:50.189Z,1.10
2023-01-18T23:46:17.258Z,0.70
2023-01-18T23:48:44.816Z,1.00
2023-01-18T23:51:12.157Z,0.90
2023-01-18T23:53:39.342Z,0.80
2023-01-18T23:55:52.535Z,0.70
2023-01-18T23:58:02.725Z,0.80
